createdAt,value
2023-04-26T00:01:07.945Z,4.97
2023-04-26T00:04:12.218Z,8.38
2023-04-26T00:07:16.608Z,4.75
2023-04-26T00:10:21.116Z,7.30
2023-04-26T00:13:25.274Z,5.35
2023-04-26T00:16:29.884Z,4.65
2023-04-26T00:19:34.630Z,5.63
2023-04-26T00:22:39.776Z,5.22
2023-04-26T00:25:43.863Z,6.10
2023-04-26T00:28:47.769Z,4.88
2023-04-26T00:31:52.055Z,4.60
2023-04-26T00:34:56.361Z,6.37
2023-04-26T00:38:00.746Z,5.93
2023-04-26T00:41:05.384Z,9.30
2023-04-26T00:44:09.424Z,4.87
2023-04-26T00:47:13.763Z,5.50
2023-04-26T00:50:18.551Z,5.80
2023-04-26T00:53:24.424Z,5.50
2023-04-26T00:56:29.439Z,4.25
2023-04-26T00:59:36.118Z,4.13
2023-04-26T01:02:40.765Z,4.20
2023-04-26T01:05:45.567Z,4.55
2023-04-26T01:08:53.505Z,4.63
2023-04-26T01:11:59.337Z,4.68
2023-04-26T01:15:05.682Z,3.83
2023-04-26T01:18:10.451Z,4.00
2023-04-26T01:21:22.635Z,6.40
2023-04-26T01:24:27.482Z,4.20
2023-04-26T01:27:31.513Z,4.32
2023-04-26T01:30:35.509Z,4.40
2023-04-26T01:33:40.404Z,4.20
2023-04-26T01:36:45.253Z,3.60
2023-04-26T01:39:50.104Z,3.63
2023-04-26T01:42:57.916Z,3.65
2023-04-26T01:46:05.444Z,3.90
2023-04-26T01:49:10.186Z,3.10
2023-04-26T01:52:14.587Z,3.40
2023-04-26T01:55:18.765Z,3.90
2023-04-26T01:58:23.428Z,2.65
2023-04-26T02:01:28.298Z,3.70
2023-04-26T02:04:33.332Z,2.72
2023-04-26T02:07:37.751Z,3.00
2023-04-26T02:10:42.652Z,2.75
2023-04-26T02:13:47.345Z,5.53
2023-04-26T02:16:52.788Z,3.08
2023-04-26T02:19:57.874Z,2.88
2023-04-26T02:23:02.500Z,2.55
2023-04-26T02:26:06.392Z,2.50
2023-04-26T02:29:10.620Z,2.63
2023-04-26T02:32:15.521Z,2.87
2023-04-26T02:35:19.950Z,2.65
2023-04-26T02:38:27.072Z,2.35
2023-04-26T02:41:34.218Z,2.70
2023-04-26T02:44:40.363Z,2.70
2023-04-26T02:47:45.736Z,2.50
2023-04-26T02:50:50.236Z,2.60
2023-04-26T02:53:54.974Z,2.92
2023-04-26T02:56:59.766Z,2.42
2023-04-26T03:00:06.471Z,2.80
2023-04-26T03:03:13.426Z,2.78
2023-04-26T03:09:23.098Z,2.90
2023-04-26T03:12:28.670Z,2.30
2023-04-26T03:15:33.386Z,2.85
2023-04-26T03:18:38.269Z,2.70
2023-04-26T03:21:43.965Z,2.40
2023-04-26T03:24:48.532Z,2.58
2023-04-26T03:27:53.610Z,2.20
2023-04-26T03:30:58.096Z,2.58
2023-04-26T03:34:02.675Z,2.60
2023-04-26T03:40:13.618Z,3.23
2023-04-26T03:43:18.013Z,2.22
2023-04-26T03:46:22.080Z,2.92
2023-04-26T03:49:27.095Z,3.00
2023-04-26T03:52:32.702Z,2.65
2023-04-26T03:55:37.388Z,2.58
2023-04-26T03:58:42.943Z,2.67
2023-04-26T04:01:48.296Z,2.90
2023-04-26T04:04:53.300Z,2.60
2023-04-26T04:07:58.086Z,2.40
2023-04-26T04:11:03.080Z,2.20
2023-04-26T04:14:08.633Z,2.45
2023-04-26T04:17:12.855Z,2.20
2023-04-26T04:20:17.386Z,2.50
2023-04-26T04:23:22.346Z,2.60
2023-04-26T04:26:27.254Z,2.20
2023-04-26T04:29:32.429Z,2.40
2023-04-26T04:32:37.935Z,2.40
2023-04-26T04:35:44.141Z,2.22
2023-04-26T04:38:48.160Z,2.88
2023-04-26T04:41:55.206Z,2.33
2023-04-26T04:45:00.817Z,2.70
2023-04-26T04:48:07.891Z,2.60
2023-04-26T04:51:12.874Z,2.35
2023-04-26T04:54:19.359Z,2.28
2023-04-26T04:57:24.479Z,2.15
2023-04-26T05:00:29.633Z,3.03
2023-04-26T05:03:49.714Z,2.40
2023-04-26T05:06:54.396Z,2.58
2023-04-26T05:10:00.859Z,2.78
2023-04-26T05:13:09.048Z,13.35
2023-04-26T05:16:14.496Z,3.85
2023-04-26T05:19:18.939Z,2.90
2023-04-26T05:22:23.376Z,2.65
2023-04-26T05:25:28.626Z,2.30
2023-04-26T05:28:41.466Z,2.42
2023-04-26T05:32:14.645Z,3.70
2023-04-26T05:35:18.612Z,3.20
2023-04-26T05:38:23.329Z,2.67
2023-04-26T05:41:28.214Z,2.70
2023-04-26T05:44:32.921Z,3.50
2023-04-26T05:47:37.702Z,2.38
2023-04-26T05:50:41.794Z,2.22
2023-04-26T05:53:45.988Z,2.55
2023-04-26T05:56:50.654Z,3.07
2023-04-26T05:59:55.105Z,2.60
2023-04-26T06:03:00.169Z,2.80
2023-04-26T06:06:04.690Z,3.00
2023-04-26T06:09:09.462Z,2.67
2023-04-26T06:12:14.002Z,4.25
2023-04-26T06:15:21.341Z,2.50
2023-04-26T06:18:25.785Z,2.63
2023-04-26T06:21:36.228Z,2.85
2023-04-26T06:24:40.247Z,2.70
2023-04-26T06:27:44.692Z,3.10
2023-04-26T06:30:49.505Z,3.08
2023-04-26T06:33:54.324Z,2.70
2023-04-26T06:36:59.035Z,3.08
2023-04-26T06:40:10.005Z,3.40
2023-04-26T06:43:14.187Z,3.10
2023-04-26T06:46:44.427Z,2.67
2023-04-26T06:49:48.442Z,2.67
2023-04-26T06:52:53.024Z,2.72
2023-04-26T06:55:59.010Z,3.42
2023-04-26T06:59:07.908Z,3.38
2023-04-26T07:02:13.352Z,3.35
2023-04-26T07:05:19.492Z,3.15
2023-04-26T07:08:23.608Z,3.80
2023-04-26T07:11:27.844Z,5.10
2023-04-26T07:14:32.729Z,3.83
2023-04-26T07:17:37.520Z,3.50
2023-04-26T07:20:41.707Z,6.33
2023-04-26T07:23:45.603Z,5.40
2023-04-26T07:26:50.111Z,4.78
2023-04-26T07:29:57.445Z,4.38
2023-04-26T07:33:01.494Z,4.05
2023-04-26T07:36:06.441Z,2.53
2023-04-26T07:39:12.561Z,2.40
2023-04-26T07:42:16.682Z,3.00
2023-04-26T07:45:20.725Z,2.53
2023-04-26T07:48:25.503Z,3.33
2023-04-26T07:51:30.233Z,2.70
2023-04-26T07:54:34.842Z,3.40
2023-04-26T07:57:41.051Z,3.00
2023-04-26T08:00:45.600Z,3.13
2023-04-26T08:03:50.890Z,3.00
2023-04-26T08:06:54.945Z,3.50
2023-04-26T08:09:59.275Z,3.38
2023-04-26T08:13:04.172Z,2.58
2023-04-26T08:16:08.769Z,3.72
2023-04-26T08:19:13.371Z,2.87
2023-04-26T08:22:18.172Z,2.50
2023-04-26T08:25:22.268Z,3.95
2023-04-26T08:28:26.711Z,4.07
2023-04-26T08:31:30.559Z,3.15
2023-04-26T08:34:34.585Z,3.05
2023-04-26T08:37:39.218Z,3.10
2023-04-26T08:40:47.872Z,3.07
2023-04-26T08:43:53.822Z,3.00
2023-04-26T08:47:11.484Z,4.60
2023-04-26T08:50:21.508Z,3.08
2023-04-26T08:53:26.272Z,2.70
2023-04-26T08:56:30.414Z,3.00
2023-04-26T08:59:45.314Z,3.08
2023-04-26T09:02:54.407Z,2.80
2023-04-26T09:06:01.091Z,3.10
2023-04-26T09:09:08.993Z,2.83
2023-04-26T09:12:13.011Z,3.05
2023-04-26T09:15:17.644Z,3.50
2023-04-26T09:18:24.281Z,3.00
2023-04-26T09:21:40.436Z,3.05
2023-04-26T09:27:53.724Z,4.55
2023-04-26T09:30:57.802Z,3.55
2023-04-26T09:34:02.124Z,5.97
2023-04-26T09:37:06.735Z,3.67
2023-04-26T09:40:20.813Z,19.98
2023-04-26T09:43:24.916Z,23.88
2023-04-26T09:46:28.841Z,23.42
2023-04-26T09:49:34.984Z,4.32
2023-04-26T09:52:48.388Z,9.80
2023-04-26T09:55:53.080Z,14.02
2023-04-26T09:59:01.400Z,5.22
2023-04-26T10:02:06.265Z,3.10
2023-04-26T10:05:11.238Z,3.28
2023-04-26T10:08:16.447Z,3.43
2023-04-26T10:11:23.316Z,3.45
2023-04-26T10:14:29.548Z,3.30
2023-04-26T10:17:33.913Z,3.55
2023-04-26T10:20:43.135Z,3.05
2023-04-26T10:23:50.222Z,3.58
2023-04-26T10:26:57.794Z,3.85
2023-04-26T10:30:05.906Z,24.80
2023-04-26T10:33:14.964Z,7.57
2023-04-26T10:36:21.933Z,6.38
2023-04-26T10:39:28.987Z,4.90
2023-04-26T10:42:33.219Z,5.07
2023-04-26T10:45:38.484Z,10.45
2023-04-26T10:48:42.809Z,10.60
2023-04-26T10:52:13.305Z,11.60
2023-04-26T10:55:43.260Z,8.27
2023-04-26T10:58:48.820Z,8.38
2023-04-26T11:01:54.056Z,11.68
2023-04-26T11:04:59.583Z,9.45
2023-04-26T11:11:15.758Z,9.20
2023-04-26T11:14:20.373Z,9.40
2023-04-26T11:17:40.048Z,10.13
2023-04-26T11:20:54.950Z,10.55
2023-04-26T11:23:59.065Z,15.18
2023-04-26T11:27:10.581Z,20.45
2023-04-26T11:30:15.329Z,21.08
2023-04-26T11:33:23.167Z,22.33
2023-04-26T11:36:28.033Z,20.83
2023-04-26T11:39:34.227Z,18.80
2023-04-26T11:42:39.034Z,15.52
2023-04-26T11:45:43.982Z,16.48
2023-04-26T11:48:48.724Z,23.30
2023-04-26T11:51:53.475Z,40.72
2023-04-26T11:55:07.309Z,56.15
2023-04-26T11:58:15.966Z,43.70
2023-04-26T12:01:29.506Z,55.42
2023-04-26T12:04:38.743Z,50.53
2023-04-26T12:07:43.605Z,46.63
2023-04-26T12:10:48.291Z,42.65
2023-04-26T12:13:54.318Z,37.58
2023-04-26T12:17:04.203Z,45.55
2023-04-26T12:20:13.156Z,38.67
2023-04-26T12:23:19.087Z,25.95
2023-04-26T12:26:23.716Z,27.02
2023-04-26T12:29:31.338Z,20.80
2023-04-26T12:32:36.224Z,17.77
2023-04-26T12:35:40.966Z,33.27
2023-04-26T12:38:45.513Z,27.02
2023-04-26T12:41:50.457Z,20.88
2023-04-26T12:44:54.829Z,28.57
2023-04-26T12:47:59.053Z,17.25
2023-04-26T12:51:04.156Z,23.92
2023-04-26T12:54:10.108Z,24.60
2023-04-26T12:57:15.434Z,32.15
2023-04-26T13:00:22.063Z,36.22
2023-04-26T13:03:27.111Z,32.53
2023-04-26T13:06:33.057Z,36.42
2023-04-26T13:12:43.612Z,36.63
2023-04-26T13:15:49.287Z,31.48
2023-04-26T13:18:53.900Z,32.45
2023-04-26T13:21:58.572Z,38.22
2023-04-26T13:25:03.246Z,33.65
2023-04-26T13:28:08.575Z,31.52
2023-04-26T13:31:12.679Z,23.23
2023-04-26T13:34:17.254Z,17.92
2023-04-26T13:37:23.180Z,21.20
2023-04-26T13:40:27.801Z,14.57
2023-04-26T13:43:33.866Z,16.75
2023-04-26T13:46:38.554Z,14.73
2023-04-26T13:49:43.076Z,12.10
2023-04-26T13:52:47.694Z,12.15
2023-04-26T13:55:51.665Z,13.07
2023-04-26T13:59:02.207Z,15.40
2023-04-26T14:02:06.780Z,12.15
2023-04-26T14:05:11.249Z,37.47
2023-04-26T14:08:15.584Z,16.65
2023-04-26T14:11:20.227Z,20.67
2023-04-26T14:14:24.448Z,13.45
2023-04-26T14:17:29.973Z,14.75
2023-04-26T14:20:34.559Z,14.57
2023-04-26T14:23:38.987Z,12.80
2023-04-26T14:26:43.087Z,15.02
2023-04-26T14:29:46.857Z,12.07
2023-04-26T14:32:51.425Z,13.38
2023-04-26T14:35:57.133Z,16.70
2023-04-26T14:39:01.611Z,14.60
2023-04-26T14:42:06.531Z,12.05
2023-04-26T14:45:11.654Z,11.35
2023-04-26T14:48:16.950Z,11.63
2023-04-26T14:51:23.930Z,12.48
2023-04-26T14:54:27.748Z,12.25
2023-04-26T14:57:33.604Z,12.70
2023-04-26T15:00:39.758Z,11.70
2023-04-26T15:03:44.171Z,11.38
2023-04-26T15:06:48.802Z,10.98
2023-04-26T15:09:53.328Z,11.15
2023-04-26T15:12:57.856Z,11.82
2023-04-26T15:16:08.419Z,12.75
2023-04-26T15:19:13.289Z,13.30
2023-04-26T15:22:17.821Z,13.52
2023-04-26T15:25:22.585Z,16.27
2023-04-26T15:28:26.972Z,19.50
2023-04-26T15:31:31.078Z,19.95
2023-04-26T15:34:41.588Z,10.35
2023-04-26T15:37:46.453Z,13.40
2023-04-26T15:40:54.699Z,58.78
2023-04-26T15:44:00.301Z,40.20
2023-04-26T15:47:04.736Z,25.73
2023-04-26T15:50:10.044Z,23.20
2023-04-26T15:53:14.571Z,21.00
2023-04-26T15:56:18.641Z,21.77
2023-04-26T15:59:23.201Z,17.05
2023-04-26T16:02:27.457Z,13.23
2023-04-26T16:05:32.475Z,11.77
2023-04-26T16:08:40.342Z,11.02
2023-04-26T16:11:45.399Z,12.75
2023-04-26T16:14:52.007Z,10.73
2023-04-26T16:17:56.215Z,10.35
2023-04-26T16:21:10.357Z,11.55
2023-04-26T16:24:14.837Z,12.27
2023-04-26T16:27:21.852Z,14.02
2023-04-26T16:30:26.412Z,13.32
2023-04-26T16:33:30.713Z,11.98
2023-04-26T16:36:34.764Z,9.45
2023-04-26T16:39:39.197Z,9.27
2023-04-26T16:42:45.312Z,9.23
2023-04-26T16:45:59.156Z,10.00
2023-04-26T16:49:10.004Z,11.30
2023-04-26T16:52:14.165Z,10.10
2023-04-26T16:55:18.328Z,10.18
2023-04-26T16:58:23.141Z,11.55
2023-04-26T17:01:27.652Z,10.70
2023-04-26T17:04:32.610Z,10.40
2023-04-26T17:07:37.862Z,10.50
2023-04-26T17:10:43.141Z,11.53
2023-04-26T17:13:47.235Z,11.48
2023-04-26T17:16:51.668Z,11.88
2023-04-26T17:19:56.200Z,9.68
2023-04-26T17:23:02.173Z,8.82
2023-04-26T17:26:06.203Z,9.48
2023-04-26T17:29:10.461Z,11.98
2023-04-26T17:32:14.454Z,11.38
2023-04-26T17:35:18.938Z,11.15
2023-04-26T17:38:22.968Z,13.15
2023-04-26T17:41:27.022Z,12.20
2023-04-26T17:44:31.023Z,13.60
2023-04-26T17:47:35.185Z,12.40
2023-04-26T17:50:39.397Z,14.95
2023-04-26T17:53:43.715Z,13.20
2023-04-26T17:56:48.572Z,10.27
2023-04-26T17:59:53.021Z,12.30
2023-04-26T18:02:58.624Z,11.85
2023-04-26T18:06:02.812Z,12.40
2023-04-26T18:09:07.972Z,14.45
2023-04-26T18:12:12.463Z,14.15
2023-04-26T18:15:16.243Z,11.00
2023-04-26T18:18:20.474Z,10.00
2023-04-26T18:21:24.698Z,8.60
2023-04-26T18:24:29.155Z,9.68
2023-04-26T18:27:33.873Z,8.38
2023-04-26T18:30:37.937Z,9.00
2023-04-26T18:33:42.408Z,10.65
2023-04-26T18:36:46.758Z,15.70
2023-04-26T18:39:50.890Z,13.65
2023-04-26T18:42:55.494Z,10.50
2023-04-26T18:46:00.221Z,14.57
2023-04-26T18:49:05.044Z,12.73
2023-04-26T18:52:09.663Z,10.93
2023-04-26T18:55:14.370Z,12.65
2023-04-26T18:58:18.801Z,13.48
2023-04-26T19:01:23.720Z,15.57
2023-04-26T19:04:29.007Z,13.60
2023-04-26T19:07:33.251Z,15.15
2023-04-26T19:10:37.775Z,15.80
2023-04-26T19:13:42.664Z,18.63
2023-04-26T19:16:47.926Z,19.27
2023-04-26T19:19:52.974Z,24.42
2023-04-26T19:22:57.444Z,26.07
2023-04-26T19:26:09.977Z,28.58
2023-04-26T19:29:14.401Z,22.08
2023-04-26T19:32:20.635Z,20.98
2023-04-26T19:35:25.216Z,18.77
2023-04-26T19:38:30.162Z,18.50
2023-04-26T19:41:34.759Z,18.60
2023-04-26T19:44:40.738Z,19.40
2023-04-26T19:47:45.234Z,19.00
2023-04-26T19:50:50.091Z,19.85
2023-04-26T19:53:54.953Z,14.60
2023-04-26T19:56:59.952Z,17.33
2023-04-26T20:00:05.806Z,18.33
2023-04-26T20:03:11.761Z,16.15
2023-04-26T20:06:16.833Z,17.10
2023-04-26T20:09:21.895Z,17.47
2023-04-26T20:12:26.395Z,17.95
2023-04-26T20:15:32.991Z,20.08
2023-04-26T20:18:38.475Z,18.77
2023-04-26T20:21:43.022Z,21.48
2023-04-26T20:24:47.536Z,19.73
2023-04-26T20:27:52.376Z,23.95
2023-04-26T20:30:57.111Z,24.50
2023-04-26T20:34:01.822Z,24.83
2023-04-26T20:37:06.715Z,19.83
2023-04-26T20:40:11.687Z,19.60
2023-04-26T20:43:16.915Z,18.70
2023-04-26T20:46:21.923Z,18.13
2023-04-26T20:49:26.405Z,18.88
2023-04-26T20:52:31.032Z,15.00
2023-04-26T20:55:35.840Z,14.57
2023-04-26T20:58:41.953Z,14.25
2023-04-26T21:01:46.499Z,14.90
2023-04-26T21:04:51.425Z,14.52
2023-04-26T21:07:56.328Z,14.20
2023-04-26T21:11:00.976Z,16.65
2023-04-26T21:14:06.063Z,13.55
2023-04-26T21:17:10.590Z,12.88
2023-04-26T21:20:15.376Z,13.48
2023-04-26T21:23:20.293Z,14.20
2023-04-26T21:26:24.894Z,15.83
2023-04-26T21:29:29.521Z,15.38
2023-04-26T21:32:34.255Z,17.55
2023-04-26T21:35:38.357Z,19.27
2023-04-26T21:38:42.339Z,25.02
2023-04-26T21:41:46.725Z,20.10
2023-04-26T21:44:51.156Z,22.15
2023-04-26T21:47:56.791Z,20.95
2023-04-26T21:51:04.839Z,21.33
2023-04-26T21:54:08.985Z,21.13
2023-04-26T21:57:13.707Z,25.80
2023-04-26T22:00:18.924Z,24.38
2023-04-26T22:03:24.537Z,27.33
2023-04-26T22:06:29.837Z,27.50
2023-04-26T22:09:33.713Z,28.08
2023-04-26T22:12:38.065Z,34.50
2023-04-26T22:15:42.780Z,21.42
2023-04-26T22:18:46.986Z,23.65
2023-04-26T22:21:51.432Z,11.55
2023-04-26T22:24:56.460Z,14.20
2023-04-26T22:28:00.659Z,14.13
2023-04-26T22:31:04.688Z,14.10
2023-04-26T22:34:09.181Z,20.70
2023-04-26T22:37:21.115Z,26.63
2023-04-26T22:40:26.410Z,25.90
2023-04-26T22:43:31.098Z,68.68
2023-04-26T22:46:35.946Z,61.53
2023-04-26T22:49:40.463Z,79.82
2023-04-26T22:52:44.707Z,66.13
2023-04-26T22:55:49.628Z,36.85
2023-04-26T22:58:54.454Z,33.93
2023-04-26T23:01:59.036Z,12.80
2023-04-26T23:09:23.612Z,30.83
2023-04-26T23:12:58.261Z,12.93
2023-04-26T23:17:09.238Z,14.00
2023-04-26T23:26:28.283Z,12.32
2023-04-26T23:29:43.196Z,9.30
2023-04-26T23:32:47.776Z,10.60
2023-04-26T23:35:53.056Z,10.18
2023-04-26T23:38:57.692Z,13.75
2023-04-26T23:42:02.115Z,8.88
2023-04-26T23:45:08.576Z,12.57
2023-04-26T23:48:13.322Z,13.63
2023-04-26T23:51:18.128Z,14.75
2023-04-26T23:54:22.580Z,12.93
2023-04-26T23:57:27.405Z,14.05
